createdAt,value
2022-10-02T00:00:06.982Z,99.9
2022-10-02T00:02:04.636Z,99.9
2022-10-02T00:04:02.378Z,99.9
2022-10-02T00:05:59.936Z,99.9
2022-10-02T00:07:57.599Z,99.9
2022-10-02T00:09:55.275Z,99.9
2022-10-02T00:11:52.868Z,99.9
2022-10-02T00:13:58.433Z,99.9
2022-10-02T00:15:56.090Z,99.9
2022-10-02T00:17:53.726Z,99.9
2022-10-02T00:18:56.498Z,99.9
2022-10-02T00:20:55.187Z,99.9
2022-10-02T00:24:49.440Z,99.9
2022-10-02T00:26:55.000Z,99.9
2022-10-02T00:28:52.650Z,99.9
2022-10-02T00:30:50.282Z,99.9
2022-10-02T00:32:47.936Z,99.9
2022-10-02T00:34:45.602Z,99.9
2022-10-02T00:36:43.252Z,99.9
2022-10-02T00:38:40.877Z,99.9
2022-10-02T00:40:46.439Z,99.9
2022-10-02T00:42:44.074Z,99.9
2022-10-02T00:46:39.373Z,99.9
2022-10-02T00:48:37.071Z,99.9
2022-10-02T00:50:34.642Z,99.9
2022-10-02T00:52:32.308Z,99.9
2022-10-02T00:54:37.915Z,99.9
2022-10-02T00:56:35.769Z,99.9
2022-10-02T00:58:33.212Z,99.9
2022-10-02T01:00:30.894Z,99.9
2022-10-02T01:02:28.577Z,99.9
2022-10-02T01:04:26.161Z,99.9
2022-10-02T01:06:23.789Z,99.9
2022-10-02T01:08:29.357Z,99.9
2022-10-02T01:10:26.991Z,99.9
2022-10-02T01:12:24.647Z,99.9
2022-10-02T01:17:22.742Z,99.9
2022-10-02T01:19:20.395Z,99.9
2022-10-02T01:21:25.960Z,99.9
2022-10-02T01:23:23.637Z,99.9
2022-10-02T01:25:21.238Z,99.9
2022-10-02T01:31:14.292Z,99.9
2022-10-02T01:33:11.829Z,99.9
2022-10-02T01:35:17.401Z,99.9
2022-10-02T01:37:15.073Z,99.9
2022-10-02T01:39:12.720Z,99.9
2022-10-02T01:41:10.324Z,99.9
2022-10-02T01:45:05.640Z,99.9
2022-10-02T01:47:03.309Z,99.9
2022-10-02T01:49:08.846Z,99.9
2022-10-02T01:51:06.487Z,99.9
2022-10-02T01:53:04.140Z,99.9
2022-10-02T01:55:01.781Z,99.9
2022-10-02T01:56:59.431Z,99.9
2022-10-02T01:58:57.067Z,99.9
2022-10-02T02:00:54.763Z,99.9
2022-10-02T02:06:55.589Z,99.9
2022-10-02T02:09:22.568Z,99.9
2022-10-02T02:11:20.230Z,99.9
2022-10-02T02:13:17.882Z,99.9
2022-10-02T02:15:23.454Z,99.9
2022-10-02T02:17:21.082Z,99.9
2022-10-02T02:21:16.362Z,99.9
2022-10-02T02:23:14.009Z,99.9
2022-10-02T02:25:11.654Z,99.9
2022-10-02T02:27:09.337Z,99.9
2022-10-02T02:29:14.861Z,99.9
2022-10-02T02:31:12.584Z,99.9
2022-10-02T02:33:10.188Z,99.9
2022-10-02T02:35:07.786Z,99.9
2022-10-02T02:37:05.442Z,99.9
2022-10-02T02:39:03.084Z,99.9
2022-10-02T02:41:00.744Z,99.9
2022-10-02T02:43:06.304Z,99.9
2022-10-02T02:45:03.957Z,99.9
2022-10-02T02:47:01.595Z,99.9
2022-10-02T02:48:59.241Z,99.9
2022-10-02T02:50:56.885Z,99.9
2022-10-02T02:52:54.549Z,99.9
2022-10-02T02:54:52.222Z,99.9
2022-10-02T02:56:57.747Z,99.9
2022-10-02T02:58:55.414Z,99.9
2022-10-02T03:00:53.096Z,99.9
2022-10-02T03:01:55.942Z,99.9
2022-10-02T03:03:53.464Z,99.9
2022-10-02T03:09:54.343Z,99.9
2022-10-02T03:11:51.994Z,99.9
2022-10-02T03:13:49.622Z,99.9
2022-10-02T03:15:47.369Z,99.9
2022-10-02T03:17:44.937Z,99.9
2022-10-02T03:19:42.582Z,99.9
2022-10-02T03:21:40.244Z,99.9
2022-10-02T03:23:45.818Z,99.9
2022-10-02T03:25:43.464Z,99.9
2022-10-02T03:27:41.091Z,99.9
2022-10-02T03:29:38.738Z,99.9
2022-10-02T03:31:36.407Z,99.9
2022-10-02T03:33:34.046Z,99.9
2022-10-02T03:35:31.687Z,99.9
2022-10-02T03:37:37.244Z,99.9
2022-10-02T03:39:36.428Z,99.9
2022-10-02T03:41:34.035Z,99.9
2022-10-02T03:43:31.678Z,99.9
2022-10-02T03:45:50.106Z,99.9
2022-10-02T03:47:26.959Z,99.9
2022-10-02T03:49:24.647Z,99.9
2022-10-02T03:51:30.679Z,99.9
2022-10-02T03:53:27.779Z,99.9
2022-10-02T03:55:25.433Z,99.9
2022-10-02T03:56:28.190Z,99.9
2022-10-02T03:58:25.827Z,99.9
2022-10-02T04:00:23.467Z,99.9
2022-10-02T04:02:21.099Z,99.9
2022-10-02T04:04:26.693Z,99.9
2022-10-02T04:06:24.337Z,99.9
2022-10-02T04:08:21.975Z,99.9
2022-10-02T04:10:19.618Z,99.9
2022-10-02T04:12:17.246Z,99.9
2022-10-02T04:14:14.929Z,99.9
2022-10-02T04:16:12.586Z,99.9
2022-10-02T04:18:18.133Z,99.9
2022-10-02T04:20:15.795Z,99.9
2022-10-02T04:22:13.438Z,99.9
2022-10-02T04:24:11.075Z,99.9
2022-10-02T04:28:06.400Z,99.9
2022-10-02T04:30:04.035Z,99.9
2022-10-02T04:34:07.230Z,99.9
2022-10-02T04:36:04.860Z,99.9
2022-10-02T04:38:02.511Z,99.9
2022-10-02T04:40:00.147Z,99.9
2022-10-02T04:41:57.785Z,99.9
2022-10-02T04:43:55.438Z,99.9
2022-10-02T04:46:01.077Z,99.9
2022-10-02T04:47:58.635Z,99.9
2022-10-02T04:49:56.271Z,99.9
2022-10-02T04:52:56.681Z,99.9
2022-10-02T04:54:54.328Z,99.9
2022-10-02T05:00:55.259Z,99.9
2022-10-02T05:02:52.875Z,99.9
2022-10-02T05:04:50.482Z,99.9
2022-10-02T05:06:48.152Z,99.9
2022-10-02T05:08:45.784Z,99.9
2022-10-02T05:10:43.452Z,99.9
2022-10-02T05:12:49.007Z,99.9
2022-10-02T05:14:46.625Z,99.9
2022-10-02T05:16:44.346Z,99.9
2022-10-02T05:18:41.918Z,99.9
2022-10-02T05:20:39.550Z,99.9
2022-10-02T05:22:37.177Z,99.9
2022-10-02T05:24:34.826Z,99.9
2022-10-02T05:26:40.437Z,99.9
2022-10-02T05:28:38.084Z,99.9
2022-10-02T05:32:33.374Z,99.9
2022-10-02T05:34:31.015Z,99.9
2022-10-02T05:36:28.681Z,99.9
2022-10-02T05:38:26.334Z,99.9
2022-10-02T05:40:31.897Z,99.9
2022-10-02T05:42:29.535Z,99.9
2022-10-02T05:44:27.193Z,99.9
2022-10-02T05:48:51.789Z,99.9
2022-10-02T05:50:49.440Z,99.9
2022-10-02T05:52:55.013Z,99.9
2022-10-02T05:54:52.665Z,99.9
2022-10-02T05:56:50.308Z,99.9
2022-10-02T05:58:47.953Z,99.9
2022-10-02T06:00:45.645Z,99.9
2022-10-02T06:02:43.253Z,99.9
2022-10-02T06:04:40.901Z,99.9
2022-10-02T06:06:46.467Z,99.9
2022-10-02T06:08:44.107Z,99.9
2022-10-02T06:16:35.114Z,99.9
2022-10-02T06:20:37.897Z,99.9
2022-10-02T06:22:35.526Z,99.9
2022-10-02T06:24:33.173Z,99.9
2022-10-02T06:30:26.179Z,99.9
2022-10-02T06:32:23.779Z,99.9
2022-10-02T06:34:29.342Z,99.9
2022-10-02T06:36:26.982Z,99.9
2022-10-02T06:38:24.623Z,99.9
2022-10-02T06:39:27.375Z,99.9
2022-10-02T06:41:25.047Z,99.9
2022-10-02T06:43:22.689Z,99.9
2022-10-02T06:47:25.910Z,99.9
2022-10-02T06:49:23.588Z,99.9
2022-10-02T06:51:21.212Z,99.9
2022-10-02T06:53:18.855Z,99.9
2022-10-02T06:57:14.133Z,99.9
2022-10-02T07:03:15.009Z,99.9
2022-10-02T07:05:12.668Z,99.9
2022-10-02T07:09:07.963Z,99.9
2022-10-02T07:11:05.580Z,99.9
2022-10-02T07:13:03.236Z,99.9
2022-10-02T07:15:08.804Z,99.9
2022-10-02T07:17:06.437Z,99.9
2022-10-02T07:19:04.066Z,99.9
2022-10-02T07:21:01.749Z,99.9
2022-10-02T07:22:59.371Z,99.9
2022-10-02T07:24:57.014Z,99.9
2022-10-02T07:26:54.684Z,99.9
2022-10-02T07:32:55.514Z,99.9
2022-10-02T07:33:58.268Z,99.9
2022-10-02T07:35:55.904Z,99.9
2022-10-02T07:37:53.540Z,99.9
2022-10-02T07:39:51.181Z,99.9
2022-10-02T07:41:56.741Z,99.9
2022-10-02T07:43:54.388Z,99.9
2022-10-02T07:45:52.201Z,99.9
2022-10-02T07:47:49.661Z,99.9
2022-10-02T07:49:47.323Z,99.9
2022-10-02T07:51:44.945Z,99.9
2022-10-02T07:55:49.163Z,99.9
2022-10-02T07:59:43.454Z,99.9
2022-10-02T08:03:38.806Z,99.9
2022-10-02T08:05:36.346Z,99.9
2022-10-02T08:07:33.989Z,99.9
2022-10-02T08:09:39.563Z,99.9
2022-10-02T08:11:37.204Z,99.9
2022-10-02T08:13:34.852Z,99.9
2022-10-02T08:15:32.473Z,99.9
2022-10-02T08:17:30.122Z,99.9
2022-10-02T08:19:27.777Z,99.9
2022-10-02T08:21:25.405Z,99.9
2022-10-02T08:27:26.250Z,99.9
2022-10-02T08:28:29.088Z,99.9
2022-10-02T08:30:26.656Z,99.9
2022-10-02T08:32:24.307Z,99.9
2022-10-02T08:36:27.506Z,99.9
2022-10-02T08:38:25.143Z,99.9
2022-10-02T08:40:22.798Z,99.9
2022-10-02T08:42:20.422Z,99.9
2022-10-02T08:46:15.713Z,99.9
2022-10-02T08:48:13.301Z,99.9
2022-10-02T08:50:18.899Z,99.9
2022-10-02T08:52:16.512Z,99.9
2022-10-02T08:54:14.130Z,99.9
2022-10-02T08:56:12.467Z,99.9
2022-10-02T08:58:09.382Z,99.9
2022-10-02T09:00:07.019Z,99.9
2022-10-02T09:02:04.680Z,99.9
2022-10-02T09:04:10.224Z,99.9
2022-10-02T09:06:07.853Z,99.9
2022-10-02T09:08:05.472Z,99.9
2022-10-02T09:10:03.109Z,99.9
2022-10-02T09:13:58.371Z,99.9
2022-10-02T09:15:56.087Z,99.9
2022-10-02T09:19:59.185Z,99.9
2022-10-02T09:21:58.399Z,99.9
2022-10-02T09:24:21.701Z,99.9
2022-10-02T09:26:19.345Z,99.9
2022-10-02T09:28:17.070Z,99.9
2022-10-02T09:32:20.142Z,99.9
2022-10-02T09:34:17.749Z,99.9
2022-10-02T09:36:15.357Z,99.9
2022-10-02T09:38:12.978Z,99.9
2022-10-02T09:40:10.611Z,99.9
2022-10-02T09:42:08.247Z,99.9
2022-10-02T09:44:13.804Z,99.9
2022-10-02T09:46:11.498Z,99.9
2022-10-02T09:48:09.050Z,99.9
2022-10-02T09:50:06.673Z,99.9
2022-10-02T09:52:04.297Z,99.9
2022-10-02T09:54:01.891Z,99.9
2022-10-02T09:55:59.525Z,99.9
2022-10-02T09:58:05.096Z,99.9
2022-10-02T10:00:02.812Z,99.9
2022-10-02T10:03:57.945Z,99.9
2022-10-02T10:05:55.717Z,99.9
2022-10-02T10:07:53.162Z,99.9
2022-10-02T10:09:50.777Z,99.9
2022-10-02T10:11:56.358Z,99.9
2022-10-02T10:13:53.965Z,99.9
2022-10-02T10:15:51.630Z,99.9
2022-10-02T10:16:54.378Z,99.9
2022-10-02T10:18:51.978Z,99.9
2022-10-02T10:20:49.580Z,99.9
2022-10-02T10:22:47.219Z,99.9
2022-10-02T10:24:52.788Z,99.9
2022-10-02T10:26:50.388Z,99.9
2022-10-02T10:28:48.026Z,99.9
2022-10-02T10:30:45.615Z,99.9
2022-10-02T10:32:43.208Z,99.9
2022-10-02T10:38:44.038Z,99.4
2022-10-02T10:42:56.382Z,98.9
2022-10-02T10:44:36.887Z,98.8
2022-10-02T10:46:34.457Z,98.7
2022-10-02T10:48:32.073Z,98.6
2022-10-02T10:50:29.663Z,98.2
2022-10-02T10:52:35.201Z,97.1
2022-10-02T10:54:32.807Z,96.8
2022-10-02T10:56:30.396Z,96.5
2022-10-02T10:58:27.974Z,96.4
2022-10-02T11:00:25.563Z,96.2
2022-10-02T11:02:23.214Z,96.2
2022-10-02T11:04:20.764Z,96.1
2022-10-02T11:06:26.310Z,95.2
2022-10-02T11:08:23.912Z,94.8
2022-10-02T11:11:24.379Z,93.8
2022-10-02T11:13:21.878Z,93.4
2022-10-02T11:15:19.436Z,93.2
2022-10-02T11:17:17.014Z,93.1
2022-10-02T11:19:22.554Z,92.7
2022-10-02T11:21:20.170Z,92.7
2022-10-02T11:23:17.685Z,92.6
2022-10-02T11:25:15.280Z,92.4
2022-10-02T11:27:12.867Z,92.2
2022-10-02T11:31:08.008Z,92.3
2022-10-02T11:33:13.531Z,92.2
2022-10-02T11:37:08.694Z,92
2022-10-02T11:39:06.274Z,91.8
2022-10-02T11:41:03.827Z,91.3
2022-10-02T11:47:04.486Z,90.1
2022-10-02T11:52:57.202Z,87.3
2022-10-02T11:54:54.770Z,83.2
2022-10-02T11:56:52.321Z,83.5
2022-10-02T11:58:49.894Z,83.4
2022-10-02T12:00:55.421Z,83.6
2022-10-02T12:02:53.207Z,84
2022-10-02T12:05:53.300Z,83.6
2022-10-02T12:09:48.423Z,83.7
2022-10-02T12:11:46.016Z,83.4
2022-10-02T12:13:51.534Z,79.3
2022-10-02T12:15:49.095Z,79.3
2022-10-02T12:17:46.654Z,79.7
2022-10-02T12:19:44.194Z,80.5
2022-10-02T12:23:39.302Z,82.5
2022-10-02T12:29:39.912Z,78.3
2022-10-02T12:31:37.821Z,74.3
2022-10-02T12:33:35.013Z,72.5
2022-10-02T12:35:32.555Z,72.1
2022-10-02T12:37:30.075Z,71.5
2022-10-02T12:39:27.601Z,70.4
2022-10-02T12:41:33.099Z,64.1
2022-10-02T12:45:28.374Z,63.6
2022-10-02T12:47:25.640Z,63.1
2022-10-02T12:49:24.150Z,64.1
2022-10-02T12:53:18.137Z,60.7
2022-10-02T12:55:23.591Z,58.5
2022-10-02T12:57:21.080Z,57.4
2022-10-02T12:59:18.533Z,57.1
2022-10-02T13:03:38.658Z,58.6
2022-10-02T13:05:36.169Z,59.3
2022-10-02T13:07:41.632Z,60.2
2022-10-02T13:09:39.126Z,60.9
2022-10-02T13:11:36.862Z,61.3
2022-10-02T13:13:34.101Z,62
2022-10-02T13:15:31.602Z,62.5
2022-10-02T13:17:29.111Z,64
2022-10-02T13:19:26.618Z,64.8
2022-10-02T13:21:32.108Z,65.4
2022-10-02T13:23:29.616Z,65.2
2022-10-02T13:25:27.146Z,65.2
2022-10-02T13:27:28.240Z,64.7
2022-10-02T13:29:22.225Z,57.9
2022-10-02T13:31:19.791Z,56.6
2022-10-02T13:33:17.256Z,55.4
2022-10-02T13:35:22.730Z,50.4
2022-10-02T13:37:20.212Z,49.3
2022-10-02T13:41:15.140Z,46.5
2022-10-02T13:45:10.026Z,45.3
2022-10-02T13:47:07.467Z,45.6
2022-10-02T13:49:12.893Z,45.9
2022-10-02T13:51:10.339Z,45.9
2022-10-02T13:53:07.752Z,45.2
2022-10-02T13:56:10.947Z,43.4
2022-10-02T13:58:05.262Z,42.3
2022-10-02T14:00:02.706Z,41.3
2022-10-02T14:02:08.051Z,40.9
2022-10-02T14:08:00.181Z,42.5
2022-10-02T14:09:57.536Z,44.9
2022-10-02T14:11:54.926Z,46.5
2022-10-02T14:13:52.322Z,50.3
2022-10-02T14:15:57.699Z,49.5
2022-10-02T14:17:55.095Z,47.1
2022-10-02T14:19:52.488Z,47.3
2022-10-02T14:21:49.902Z,46.6
2022-10-02T14:23:47.311Z,42.9
2022-10-02T14:25:44.701Z,41.1
2022-10-02T14:27:42.143Z,40
2022-10-02T14:29:47.473Z,44.1
2022-10-02T14:31:44.943Z,44.8
2022-10-02T14:33:42.287Z,47.1
2022-10-02T14:35:39.688Z,48.6
2022-10-02T14:37:37.133Z,50.1
2022-10-02T14:39:34.553Z,51.5
2022-10-02T14:41:32.013Z,52.8
2022-10-02T14:45:34.961Z,54.4
2022-10-02T14:48:35.131Z,55.4
2022-10-02T14:50:32.643Z,55.7
2022-10-02T14:58:30.660Z,56.2
2022-10-02T15:00:28.202Z,56.2
2022-10-02T15:02:27.316Z,56.1
2022-10-02T15:04:24.880Z,55.8
2022-10-02T15:06:22.379Z,55.8
2022-10-02T15:08:19.926Z,55.5
2022-10-02T15:10:25.466Z,55.1
2022-10-02T15:12:23.018Z,55.1
2022-10-02T15:14:20.596Z,55.6
2022-10-02T15:16:18.217Z,55.9
2022-10-02T15:18:15.724Z,56.2
2022-10-02T15:20:13.293Z,56.7
2022-10-02T15:22:10.870Z,57.2
2022-10-02T15:24:16.414Z,57.9
2022-10-02T15:26:14.006Z,58.2
2022-10-02T15:32:06.775Z,59.3
2022-10-02T15:34:04.323Z,59.6
2022-10-02T15:38:07.449Z,59.9
2022-10-02T15:40:05.111Z,59.8
2022-10-02T15:43:05.434Z,59.6
2022-10-02T15:45:03.014Z,59.6
2022-10-02T15:47:00.609Z,59.5
2022-10-02T15:48:58.225Z,59.6
2022-10-02T15:51:03.797Z,59.7
2022-10-02T15:53:01.349Z,59.8
2022-10-02T15:54:58.968Z,60
2022-10-02T15:56:56.583Z,60.2
2022-10-02T15:58:54.209Z,60.2
2022-10-02T16:00:51.886Z,60.4
2022-10-02T16:02:49.427Z,60.6
2022-10-02T16:04:54.982Z,61.1
2022-10-02T16:06:52.599Z,61.3
2022-10-02T16:08:50.243Z,61.6
2022-10-02T16:12:45.456Z,62.3
2022-10-02T16:18:46.258Z,63.9
2022-10-02T16:20:43.901Z,64.1
2022-10-02T16:22:41.515Z,64.4
2022-10-02T16:24:39.140Z,64.7
2022-10-02T16:26:37.006Z,65
2022-10-02T16:28:34.443Z,65.2
2022-10-02T16:32:37.547Z,66.2
2022-10-02T16:34:35.169Z,66.5
2022-10-02T16:38:59.700Z,67.1
2022-10-02T16:40:57.318Z,67.2
2022-10-02T16:42:54.953Z,67.4
2022-10-02T16:46:58.176Z,68.1
2022-10-02T16:52:51.070Z,68.9
2022-10-02T16:54:48.700Z,69.2
2022-10-02T16:56:46.289Z,69.5
2022-10-02T16:58:51.876Z,70.2
2022-10-02T17:02:47.216Z,70.9
2022-10-02T17:04:44.758Z,71.2
2022-10-02T17:06:42.383Z,71.6
2022-10-02T17:08:40.056Z,72
2022-10-02T17:10:37.674Z,72.3
2022-10-02T17:12:43.230Z,72.9
2022-10-02T17:14:40.856Z,73.2
2022-10-02T17:16:38.998Z,73.3
2022-10-02T17:18:36.160Z,73.5
2022-10-02T17:20:33.784Z,73.7
2022-10-02T17:22:31.403Z,74.1
2022-10-02T17:24:29.062Z,74.4
2022-10-02T17:26:35.025Z,75.5
2022-10-02T17:30:29.886Z,76.5
2022-10-02T17:31:32.717Z,76.9
2022-10-02T17:33:30.305Z,77.5
2022-10-02T17:35:27.937Z,78.3
2022-10-02T17:37:25.583Z,78.8
2022-10-02T17:39:31.146Z,79.7
2022-10-02T17:41:28.800Z,80.1
2022-10-02T17:43:26.436Z,80.7
2022-10-02T17:45:24.139Z,81
2022-10-02T17:47:21.732Z,81.4
2022-10-02T17:49:19.380Z,81.8
2022-10-02T17:51:47.196Z,82.3
2022-10-02T17:53:22.591Z,83.3
2022-10-02T17:55:20.224Z,83.8
2022-10-02T17:57:17.861Z,84.2
2022-10-02T17:59:15.498Z,84.6
2022-10-02T18:01:13.412Z,85.1
2022-10-02T18:03:10.815Z,85.5
2022-10-02T18:05:08.476Z,85.9
2022-10-02T18:07:14.067Z,86.9
2022-10-02T18:11:09.346Z,87.9
2022-10-02T18:13:06.989Z,88.3
2022-10-02T18:15:04.660Z,88.8
2022-10-02T18:17:02.286Z,89.3
2022-10-02T18:18:59.948Z,89.8
2022-10-02T18:21:05.535Z,90.7
2022-10-02T18:25:00.845Z,91.3
2022-10-02T18:29:58.925Z,91.8
2022-10-02T18:31:56.874Z,92
2022-10-02T18:34:02.160Z,92.3
2022-10-02T18:37:57.446Z,92.6
2022-10-02T18:40:01.327Z,92.7
2022-10-02T18:41:52.740Z,92.8
2022-10-02T18:43:50.375Z,93
2022-10-02T18:45:48.041Z,93.1
2022-10-02T18:47:53.553Z,93.4
2022-10-02T18:49:51.205Z,93.5
2022-10-02T18:51:48.865Z,93.5
2022-10-02T18:53:46.526Z,93.6
2022-10-02T18:55:44.157Z,93.7
2022-10-02T19:01:45.084Z,94.4
2022-10-02T19:03:42.664Z,94.7
2022-10-02T19:07:37.939Z,94.9
2022-10-02T19:09:35.611Z,95
2022-10-02T19:15:36.475Z,94.9
2022-10-02T19:17:34.111Z,95
2022-10-02T19:19:31.765Z,95
2022-10-02T19:20:34.580Z,95.1
2022-10-02T19:22:32.219Z,95.2
2022-10-02T19:24:29.883Z,95.3
2022-10-02T19:26:27.535Z,95.3
2022-10-02T19:28:33.164Z,95.4
2022-10-02T19:30:30.761Z,95.5
2022-10-02T19:32:28.398Z,95.6
2022-10-02T19:34:26.049Z,95.8
2022-10-02T19:36:23.719Z,96
2022-10-02T19:38:21.349Z,96.2
2022-10-02T19:44:22.253Z,96.9
2022-10-02T19:46:20.010Z,97
2022-10-02T19:48:17.551Z,97.1
2022-10-02T19:50:15.197Z,97.3
2022-10-02T19:52:12.860Z,97.4
2022-10-02T19:54:10.536Z,97.4
2022-10-02T19:56:16.064Z,97.6
2022-10-02T19:58:13.723Z,97.7
2022-10-02T20:00:11.371Z,97.8
2022-10-02T20:02:09.061Z,97.9
2022-10-02T20:04:06.666Z,98
2022-10-02T20:06:04.303Z,98.2
2022-10-02T20:08:06.649Z,98.3
2022-10-02T20:10:07.516Z,98.5
2022-10-02T20:14:02.827Z,98.6
2022-10-02T20:16:29.876Z,98.7
2022-10-02T20:18:27.437Z,98.7
2022-10-02T20:20:25.102Z,98.7
2022-10-02T20:22:30.652Z,98.8
2022-10-02T20:24:28.292Z,98.9
2022-10-02T20:26:25.948Z,99.1
2022-10-02T20:30:21.266Z,99.2
2022-10-02T20:32:18.901Z,99.3
2022-10-02T20:34:16.538Z,99.4
2022-10-02T20:36:22.113Z,99.5
2022-10-02T20:38:19.754Z,99.6
2022-10-02T20:40:17.403Z,99.6
2022-10-02T20:42:15.044Z,99.6
2022-10-02T20:44:14.235Z,99.6
2022-10-02T20:46:11.862Z,99.5
2022-10-02T20:48:09.471Z,99.5
2022-10-02T20:50:15.045Z,99.6
2022-10-02T20:52:12.713Z,99.7
2022-10-02T20:54:10.372Z,99.7
2022-10-02T20:56:08.023Z,99.8
2022-10-02T21:02:01.031Z,99.9
2022-10-02T21:04:06.528Z,99.9
2022-10-02T21:06:04.172Z,99.9
2022-10-02T21:08:01.831Z,99.9
2022-10-02T21:09:04.599Z,99.9
2022-10-02T21:11:02.412Z,99.9
2022-10-02T21:14:57.554Z,99.9
2022-10-02T21:17:03.177Z,99.9
2022-10-02T21:22:56.095Z,99.9
2022-10-02T21:24:53.750Z,99.9
2022-10-02T21:26:51.380Z,99.9
2022-10-02T21:28:49.030Z,99.9
2022-10-02T21:30:54.691Z,99.9
2022-10-02T21:32:52.283Z,99.9
2022-10-02T21:34:49.913Z,99.9
2022-10-02T21:36:47.566Z,99.9
2022-10-02T21:38:45.209Z,99.9
2022-10-02T21:40:42.834Z,99.9
2022-10-02T21:42:40.489Z,99.9
2022-10-02T21:44:46.511Z,99.9
2022-10-02T21:46:43.738Z,99.9
2022-10-02T21:48:41.351Z,99.9
2022-10-02T21:50:39.039Z,99.9
2022-10-02T21:56:31.955Z,99.9
2022-10-02T21:58:37.531Z,99.9
2022-10-02T22:03:35.647Z,99.9
2022-10-02T22:05:33.365Z,99.9
2022-10-02T22:07:30.969Z,99.9
2022-10-02T22:09:28.627Z,99.9
2022-10-02T22:11:34.220Z,99.9
2022-10-02T22:13:31.832Z,99.9
2022-10-02T22:15:29.507Z,99.9
2022-10-02T22:17:27.166Z,99.9
2022-10-02T22:19:24.805Z,99.9
2022-10-02T22:21:22.457Z,99.9
2022-10-02T22:27:23.332Z,99.9
2022-10-02T22:29:20.992Z,99.9
2022-10-02T22:31:18.696Z,99.9
2022-10-02T22:37:11.624Z,99.9
2022-10-02T22:39:17.220Z,99.9
2022-10-02T22:41:14.854Z,99.9
2022-10-02T22:43:12.513Z,99.9
2022-10-02T22:45:10.191Z,99.9
2022-10-02T22:47:07.818Z,99.9
2022-10-02T22:53:08.726Z,99.9
2022-10-02T22:55:06.376Z,99.9
2022-10-02T22:58:06.831Z,99.9
2022-10-02T23:00:04.498Z,99.9
2022-10-02T23:03:59.812Z,99.9
2022-10-02T23:06:05.390Z,99.9
2022-10-02T23:10:00.696Z,99.9
2022-10-02T23:11:58.356Z,99.9
2022-10-02T23:13:56.003Z,99.9
2022-10-02T23:15:53.700Z,99.9
2022-10-02T23:17:51.291Z,99.9
2022-10-02T23:19:56.873Z,99.9
2022-10-02T23:21:54.516Z,99.9
2022-10-02T23:23:52.140Z,99.9
2022-10-02T23:25:49.801Z,99.9
2022-10-02T23:27:47.498Z,99.9
2022-10-02T23:29:45.116Z,99.9
2022-10-02T23:31:42.909Z,99.9
2022-10-02T23:33:48.303Z,99.9
2022-10-02T23:35:45.933Z,99.9
2022-10-02T23:37:43.594Z,99.9
2022-10-02T23:39:41.256Z,99.9
2022-10-02T23:41:39.213Z,99.9
2022-10-02T23:43:36.552Z,99.9
2022-10-02T23:49:37.402Z,99.9
2022-10-02T23:54:02.102Z,99.9
2022-10-02T23:55:59.720Z,99.9
2022-10-02T23:57:57.371Z,99.9
